Time,TemperatureF,DewpointF,PressureIn,WindDirection,WindDirectionDegrees,WindSpeedMPH,WindSpeedGustMPH,Humidity,HourlyPrecipIn,Conditions,Clouds,dailyrainin,SolarRadiationWatts/m^2,SoftwareType,DateUTC
2013-05-05 00:02:00,66.0,65.1,29.76,NE,53,0.0,5.0,97,0.01,,,0.05,0.0,meteohub,2013-05-05 04:02:00,
2013-05-05 00:05:00,66.0,65.1,29.76,ENE,58,0.0,5.0,97,0.01,,,0.05,0.0,meteohub,2013-05-05 04:05:00,
2013-05-05 00:07:00,66.0,65.1,29.76,East,88,0.0,5.0,97,0.01,,,0.05,0.0,meteohub,2013-05-05 04:07:00,
2013-05-05 00:08:00,66.0,65.1,29.76,East,88,0.0,5.0,97,0.01,,,0.05,0.0,meteohub,2013-05-05 04:08:00,
2013-05-05 00:14:00,66.2,65.3,29.75,East,88,0.0,5.0,97,0.02,,,0.06,0.0,meteohub,2013-05-05 04:14:00,
2013-05-05 00:20:00,66.2,65.3,29.76,ENE,65,0.0,4.0,97,0.02,,,0.06,0.0,meteohub,2013-05-05 04:20:00,
2013-05-05 00:27:00,66.4,65.5,29.75,East,89,0.0,6.0,97,0.01,,,0.06,0.0,meteohub,2013-05-05 04:27:00,
2013-05-05 00:32:00,66.4,65.5,29.75,East,92,0.0,7.0,97,0.01,,,0.06,0.0,meteohub,2013-05-05 04:32:00,
2013-05-05 00:39:00,66.4,65.5,29.74,ESE,115,0.0,7.0,97,0.01,,,0.06,0.0,meteohub,2013-05-05 04:39:00,
2013-05-05 00:45:00,66.4,65.5,29.74,NE,54,1.0,5.0,97,0.01,,,0.06,0.0,meteohub,2013-05-05 04:45:00,
2013-05-05 00:51:00,66.4,65.5,29.74,SE,136,0.0,6.0,97,0.01,,,0.06,0.0,meteohub,2013-05-05 04:51:00,
2013-05-05 00:57:00,66.4,65.5,29.73,East,84,1.0,6.0,97,0.01,,,0.06,0.0,meteohub,2013-05-05 04:57:00,
2013-05-05 01:02:00,66.4,65.5,29.73,NNE,12,0.0,9.0,97,0.01,,,0.06,0.0,meteohub,2013-05-05 05:02:00,
2013-05-05 01:07:00,66.4,65.5,29.73,South,173,0.0,9.0,97,0.02,,,0.07,0.0,meteohub,2013-05-05 05:07:00,
2013-05-05 01:12:00,66.6,65.7,29.73,South,181,0.0,9.0,97,0.01,,,0.07,0.0,meteohub,2013-05-05 05:12:00,
2013-05-05 01:17:00,66.6,65.7,29.74,South,174,0.0,7.0,97,0.02,,,0.08,0.0,meteohub,2013-05-05 05:17:00,
2013-05-05 01:22:00,66.6,65.7,29.73,South,174,0.0,7.0,97,0.03,,,0.09,0.0,meteohub,2013-05-05 05:22:00,
2013-05-05 01:27:00,66.6,66.0,29.73,SSE,161,0.0,7.0,98,0.06,,,0.12,0.0,meteohub,2013-05-05 05:27:00,
2013-05-05 01:32:00,66.7,66.2,29.73,ESE,121,0.0,10.0,98,0.06,,,0.12,0.0,meteohub,2013-05-05 05:32:00,
2013-05-05 01:37:00,66.7,65.8,29.73,SSW,209,0.0,10.0,97,0.06,,,0.12,0.0,meteohub,2013-05-05 05:37:00,
2013-05-05 01:42:00,66.7,66.2,29.73,SSE,157,0.0,4.0,98,0.08,,,0.14,0.0,meteohub,2013-05-05 05:42:00,
2013-05-05 01:47:00,66.7,65.8,29.73,South,177,0.0,3.0,97,0.08,,,0.14,0.0,meteohub,2013-05-05 05:47:00,
2013-05-05 01:52:00,66.9,66.0,29.73,North,0,0.0,3.0,97,0.08,,,0.14,0.0,meteohub,2013-05-05 05:52:00,
2013-05-05 01:57:00,66.9,66.0,29.73,North,5,0.0,3.0,97,0.08,,,0.14,0.0,meteohub,2013-05-05 05:57:00,
2013-05-05 02:02:00,66.9,66.0,29.72,ENE,57,0.0,3.0,97,0.07,,,0.14,0.0,meteohub,2013-05-05 06:02:00,
2013-05-05 02:07:00,66.9,66.0,29.72,WSW,252,0.0,1.0,97,0.07,,,0.14,0.0,meteohub,2013-05-05 06:07:00,
2013-05-05 02:14:00,67.1,66.2,29.72,South,183,0.0,2.0,97,0.06,,,0.14,0.0,meteohub,2013-05-05 06:14:00,
2013-05-05 02:20:00,67.1,66.2,29.71,South,174,0.0,3.0,97,0.04,,,0.14,0.0,meteohub,2013-05-05 06:20:00,
2013-05-05 02:26:00,67.3,66.7,29.71,South,173,0.0,3.0,98,0.02,,,0.14,0.0,meteohub,2013-05-05 06:26:00,
2013-05-05 02:32:00,67.3,66.7,29.71,South,174,0.0,2.0,98,0.02,,,0.14,0.0,meteohub,2013-05-05 06:32:00,
2013-05-05 02:39:00,67.3,66.7,29.71,South,174,0.0,2.0,98,0.01,,,0.14,0.0,meteohub,2013-05-05 06:39:00,
2013-05-05 02:45:00,67.3,66.7,29.71,South,174,0.0,2.0,98,0.00,,,0.14,0.0,meteohub,2013-05-05 06:45:00,
2013-05-05 02:51:00,67.3,66.7,29.71,South,174,0.0,1.0,98,0.00,,,0.14,0.0,meteohub,2013-05-05 06:51:00,
2013-05-05 02:57:00,67.3,66.7,29.70,South,174,0.0,1.0,98,0.00,,,0.14,0.0,meteohub,2013-05-05 06:57:00,
2013-05-05 03:02:00,67.3,66.7,29.71,South,174,0.0,0.0,98,0.01,,,0.15,0.0,meteohub,2013-05-05 07:02:00,
2013-05-05 03:07:00,67.3,66.7,29.71,South,174,0.0,2.0,98,0.02,,,0.16,0.0,meteohub,2013-05-05 07:07:00,
2013-05-05 03:12:00,67.3,66.7,29.70,South,174,0.0,2.0,98,0.02,,,0.16,0.0,meteohub,2013-05-05 07:12:00,
2013-05-05 03:17:00,67.5,66.9,29.70,SE,140,0.0,4.0,98,0.02,,,0.16,0.0,meteohub,2013-05-05 07:17:00,
2013-05-05 03:22:00,67.5,66.9,29.70,SE,144,0.0,4.0,98,0.02,,,0.16,0.0,meteohub,2013-05-05 07:22:00,
2013-05-05 03:27:00,67.5,66.9,29.71,South,181,3.0,4.0,98,0.02,,,0.16,0.0,meteohub,2013-05-05 07:27:00,
2013-05-05 03:32:00,67.5,66.9,29.71,West,278,2.0,5.0,98,0.02,,,0.16,0.0,meteohub,2013-05-05 07:32:00,
2013-05-05 03:37:00,66.9,66.0,29.72,West,269,2.0,5.0,97,0.03,,,0.17,0.0,meteohub,2013-05-05 07:37:00,
2013-05-05 03:42:00,66.0,65.1,29.72,SW,227,3.0,6.0,97,0.03,,,0.17,0.0,meteohub,2013-05-05 07:42:00,
2013-05-05 03:47:00,64.9,64.0,29.72,WNW,292,0.0,12.0,97,0.03,,,0.17,0.0,meteohub,2013-05-05 07:47:00,
2013-05-05 03:52:00,64.6,63.7,29.72,WSW,255,0.0,12.0,97,0.03,,,0.17,0.0,meteohub,2013-05-05 07:52:00,
2013-05-05 03:57:00,63.9,63.0,29.72,West,273,0.0,12.0,97,0.03,,,0.17,0.0,meteohub,2013-05-05 07:57:00,
2013-05-05 04:02:00,63.7,62.8,29.72,West,273,1.0,6.0,97,0.01,,,0.17,0.0,meteohub,2013-05-05 08:02:00,
2013-05-05 04:07:00,63.5,62.6,29.72,West,273,0.0,4.0,97,0.01,,,0.17,0.0,meteohub,2013-05-05 08:07:00,
2013-05-05 04:12:00,63.3,62.4,29.72,West,278,1.0,3.0,97,0.01,,,0.17,0.0,meteohub,2013-05-05 08:12:00,
2013-05-05 04:17:00,63.0,62.1,29.73,West,270,3.0,5.0,97,0.01,,,0.17,0.0,meteohub,2013-05-05 08:17:00,
2013-05-05 04:22:00,62.8,61.9,29.73,WSW,254,1.0,5.0,97,0.01,,,0.17,0.0,meteohub,2013-05-05 08:22:00,
2013-05-05 04:27:00,62.4,61.5,29.73,West,281,2.0,5.0,97,0.01,,,0.17,0.0,meteohub,2013-05-05 08:27:00,
2013-05-05 04:32:00,62.1,61.2,29.73,West,277,1.0,5.0,97,0.01,,,0.17,0.0,meteohub,2013-05-05 08:32:00,
2013-05-05 04:37:00,61.5,60.6,29.73,West,269,2.0,7.0,97,0.00,,,0.17,0.0,meteohub,2013-05-05 08:37:00,
2013-05-05 04:42:00,61.2,60.3,29.73,WNW,290,0.0,7.0,97,0.00,,,0.17,0.0,meteohub,2013-05-05 08:42:00,
2013-05-05 04:47:00,61.0,60.1,29.73,West,269,0.0,7.0,97,0.00,,,0.17,0.0,meteohub,2013-05-05 08:47:00,
2013-05-05 04:52:00,60.6,59.7,29.73,West,267,0.0,7.0,97,0.00,,,0.17,0.0,meteohub,2013-05-05 08:52:00,
2013-05-05 04:57:00,60.6,59.7,29.73,West,271,1.0,7.0,97,0.00,,,0.17,0.0,meteohub,2013-05-05 08:57:00,
2013-05-05 05:02:00,60.4,59.5,29.73,West,274,0.0,7.0,97,0.00,,,0.17,0.0,meteohub,2013-05-05 09:02:00,
2013-05-05 05:07:00,60.4,59.5,29.73,West,268,0.0,7.0,97,0.00,,,0.17,0.0,meteohub,2013-05-05 09:07:00,
2013-05-05 05:12:00,60.3,59.4,29.73,West,271,4.0,5.0,97,0.00,,,0.17,0.0,meteohub,2013-05-05 09:12:00,
2013-05-05 05:17:00,60.1,59.2,29.73,West,273,3.0,6.0,97,0.00,,,0.17,0.0,meteohub,2013-05-05 09:17:00,
2013-05-05 05:22:00,60.1,59.2,29.73,West,279,0.0,6.0,97,0.00,,,0.17,0.0,meteohub,2013-05-05 09:22:00,
2013-05-05 05:27:00,59.9,59.0,29.74,West,281,0.0,6.0,97,0.00,,,0.17,0.0,meteohub,2013-05-05 09:27:00,
2013-05-05 05:32:00,59.9,59.0,29.74,West,266,0.0,6.0,97,0.00,,,0.17,0.0,meteohub,2013-05-05 09:32:00,
2013-05-05 05:37:00,59.7,58.8,29.74,WSW,254,0.0,4.0,97,0.00,,,0.17,0.0,meteohub,2013-05-05 09:37:00,
2013-05-05 05:42:00,59.7,58.8,29.74,WSW,254,0.0,4.0,97,0.00,,,0.17,0.0,meteohub,2013-05-05 09:42:00,
2013-05-05 05:47:00,59.7,58.8,29.74,WSW,254,0.0,4.0,97,0.00,,,0.17,0.0,meteohub,2013-05-05 09:47:00,
2013-05-05 05:52:00,59.7,58.8,29.75,West,275,1.0,3.0,97,0.00,,,0.17,0.0,meteohub,2013-05-05 09:52:00,
2013-05-05 05:59:00,59.7,58.8,29.75,West,271,1.0,5.0,97,0.00,,,0.17,0.0,meteohub,2013-05-05 09:59:00,
2013-05-05 06:05:00,59.7,58.8,29.75,West,271,1.0,5.0,97,0.00,,,0.17,0.0,meteohub,2013-05-05 10:05:00,
2013-05-05 06:11:00,59.7,58.8,29.75,West,271,0.0,5.0,97,0.00,,,0.17,0.0,meteohub,2013-05-05 10:11:00,
2013-05-05 06:17:00,59.7,58.8,29.76,WSW,254,2.0,3.0,97,0.00,,,0.17,0.0,meteohub,2013-05-05 10:17:00,
2013-05-05 06:22:00,59.7,58.8,29.76,WSW,254,2.0,4.0,97,0.00,,,0.17,0.0,meteohub,2013-05-05 10:22:00,
2013-05-05 06:27:00,59.7,58.8,29.76,West,279,0.0,4.0,97,0.00,,,0.17,0.0,meteohub,2013-05-05 10:27:00,
2013-05-05 06:32:00,59.5,58.6,29.77,West,276,0.0,3.0,97,0.00,,,0.17,0.0,meteohub,2013-05-05 10:32:00,
2013-05-05 06:37:00,59.5,58.6,29.77,West,264,0.0,3.0,97,0.00,,,0.17,0.0,meteohub,2013-05-05 10:37:00,
2013-05-05 06:42:00,59.5,58.6,29.77,West,269,0.0,3.0,97,0.00,,,0.17,0.0,meteohub,2013-05-05 10:42:00,
2013-05-05 06:47:00,59.4,58.5,29.77,WNW,288,0.0,4.0,97,0.00,,,0.17,0.0,meteohub,2013-05-05 10:47:00,
2013-05-05 06:52:00,59.4,58.5,29.78,West,268,0.0,6.0,97,0.00,,,0.17,0.0,meteohub,2013-05-05 10:52:00,
2013-05-05 06:57:00,59.4,58.5,29.78,West,273,0.0,6.0,97,0.00,,,0.17,5.0,meteohub,2013-05-05 10:57:00,
2013-05-05 07:02:00,59.2,58.3,29.78,West,273,0.0,3.0,97,0.00,,,0.17,9.0,meteohub,2013-05-05 11:02:00,
2013-05-05 07:07:00,59.2,58.3,29.78,West,273,0.0,3.0,97,0.00,,,0.17,18.0,meteohub,2013-05-05 11:07:00,
2013-05-05 07:13:00,59.2,58.3,29.78,WSW,254,0.0,3.0,97,0.00,,,0.17,28.0,meteohub,2013-05-05 11:13:00,
2013-05-05 07:19:00,59.2,58.3,29.79,West,275,2.0,3.0,97,0.00,,,0.17,30.0,meteohub,2013-05-05 11:19:00,
2013-05-05 07:25:00,59.2,58.3,29.79,West,275,0.0,3.0,97,0.00,,,0.17,51.0,meteohub,2013-05-05 11:25:00,
2013-05-05 07:31:00,59.2,58.3,29.80,West,272,0.0,3.0,97,0.00,,,0.17,56.0,meteohub,2013-05-05 11:31:00,
2013-05-05 07:37:00,59.2,58.3,29.80,West,279,0.0,4.0,97,0.00,,,0.17,53.0,meteohub,2013-05-05 11:37:00,
2013-05-05 07:42:00,59.2,58.3,29.80,WSW,248,0.0,5.0,97,0.00,,,0.17,47.0,meteohub,2013-05-05 11:42:00,
2013-05-05 07:47:00,59.2,58.3,29.80,West,262,0.0,5.0,97,0.00,,,0.17,83.0,meteohub,2013-05-05 11:47:00,
2013-05-05 07:53:00,59.4,58.5,29.80,West,281,2.0,5.0,97,0.00,,,0.17,60.0,meteohub,2013-05-05 11:53:00,
2013-05-05 07:59:00,59.2,58.3,29.81,WSW,254,0.0,7.0,97,0.00,,,0.17,67.0,meteohub,2013-05-05 11:59:00,
2013-05-05 08:05:00,59.2,58.3,29.81,West,279,4.0,9.0,97,0.00,,,0.17,54.0,meteohub,2013-05-05 12:05:00,
2013-05-05 08:11:00,59.0,58.1,29.82,WNW,285,2.0,9.0,97,0.00,,,0.17,62.0,meteohub,2013-05-05 12:11:00,
2013-05-05 08:17:00,59.0,58.1,29.82,West,263,0.0,6.0,97,0.00,,,0.17,60.0,meteohub,2013-05-05 12:17:00,
2013-05-05 08:22:00,59.0,58.1,29.82,WSW,250,1.0,6.0,97,0.00,,,0.17,58.0,meteohub,2013-05-05 12:22:00,
2013-05-05 08:27:00,59.0,58.1,29.83,WNW,283,0.0,6.0,97,0.00,,,0.17,93.0,meteohub,2013-05-05 12:27:00,
2013-05-05 08:32:00,58.8,57.9,29.83,West,267,0.0,9.0,97,0.00,,,0.17,109.0,meteohub,2013-05-05 12:32:00,
2013-05-05 08:37:00,58.8,57.9,29.83,West,267,0.0,9.0,97,0.00,,,0.17,116.0,meteohub,2013-05-05 12:37:00,
2013-05-05 08:42:00,58.8,57.9,29.84,West,260,2.0,9.0,97,0.00,,,0.17,130.0,meteohub,2013-05-05 12:42:00,
2013-05-05 08:47:00,58.8,57.9,29.84,SW,214,0.0,9.0,97,0.00,,,0.17,134.0,meteohub,2013-05-05 12:47:00,
2013-05-05 08:52:00,58.8,57.9,29.84,West,268,0.0,5.0,97,0.00,,,0.17,188.0,meteohub,2013-05-05 12:52:00,
2013-05-05 08:57:00,58.8,57.9,29.85,West,269,2.0,5.0,97,0.00,,,0.17,149.0,meteohub,2013-05-05 12:57:00,
2013-05-05 09:02:00,58.8,57.9,29.84,West,274,0.0,7.0,97,0.00,,,0.17,176.0,meteohub,2013-05-05 13:02:00,
2013-05-05 09:07:00,59.0,58.1,29.84,WSW,253,2.0,7.0,97,0.00,,,0.17,107.0,meteohub,2013-05-05 13:07:00,
2013-05-05 09:12:00,58.8,57.9,29.85,West,277,0.0,10.0,97,0.00,,,0.17,109.0,meteohub,2013-05-05 13:12:00,
2013-05-05 09:17:00,59.0,58.1,29.85,West,274,1.0,10.0,97,0.00,,,0.17,125.0,meteohub,2013-05-05 13:17:00,
2013-05-05 09:22:00,58.8,57.9,29.85,WNW,284,4.0,10.0,97,0.00,,,0.17,116.0,meteohub,2013-05-05 13:22:00,
2013-05-05 09:27:00,58.6,57.6,29.85,West,277,0.0,7.0,96,0.00,,,0.17,183.0,meteohub,2013-05-05 13:27:00,
2013-05-05 09:32:00,58.5,57.6,29.85,West,280,0.0,6.0,97,0.00,,,0.17,130.0,meteohub,2013-05-05 13:32:00,
2013-05-05 09:37:00,58.5,57.6,29.86,WNW,287,2.0,6.0,97,0.00,,,0.17,90.0,meteohub,2013-05-05 13:37:00,
2013-05-05 09:42:00,58.1,57.0,29.86,West,267,1.0,6.0,96,0.00,,,0.17,114.0,meteohub,2013-05-05 13:42:00,
2013-05-05 09:47:00,57.9,56.8,29.86,WSW,252,1.0,6.0,96,0.00,,,0.17,186.0,meteohub,2013-05-05 13:47:00,
2013-05-05 09:52:00,57.9,56.8,29.86,WNW,290,1.0,6.0,96,0.00,,,0.17,158.0,meteohub,2013-05-05 13:52:00,
2013-05-05 09:57:00,57.9,56.8,29.86,North,349,0.0,6.0,96,0.00,,,0.17,178.0,meteohub,2013-05-05 13:57:00,
2013-05-05 10:02:00,57.9,56.8,29.86,WSW,237,0.0,12.0,96,0.00,,,0.17,121.0,meteohub,2013-05-05 14:02:00,
2013-05-05 10:08:00,57.9,57.0,29.87,WSW,257,0.0,12.0,97,0.00,,,0.17,171.0,meteohub,2013-05-05 14:08:00,
2013-05-05 10:14:00,57.9,56.8,29.86,West,280,0.0,12.0,96,0.00,,,0.17,276.0,meteohub,2013-05-05 14:14:00,
2013-05-05 10:20:00,57.9,56.8,29.86,West,259,1.0,8.0,96,0.00,,,0.17,206.0,meteohub,2013-05-05 14:20:00,
2013-05-05 10:27:00,57.9,56.8,29.86,WNW,294,3.0,8.0,96,0.00,,,0.17,373.0,meteohub,2013-05-05 14:27:00,
2013-05-05 10:32:00,58.6,57.6,29.86,WNW,296,0.0,8.0,96,0.00,,,0.17,274.0,meteohub,2013-05-05 14:32:00,
2013-05-05 10:37:00,59.7,58.6,29.86,West,270,0.0,7.0,96,0.00,,,0.17,274.0,meteohub,2013-05-05 14:37:00,
2013-05-05 10:42:00,60.6,58.8,29.86,West,261,0.0,7.0,94,0.00,,,0.17,895.0,meteohub,2013-05-05 14:42:00,
2013-05-05 10:47:00,61.5,59.2,29.86,North,355,0.0,7.0,92,0.00,,,0.17,758.0,meteohub,2013-05-05 14:47:00,
2013-05-05 10:54:00,62.4,58.8,29.86,East,95,0.0,7.0,88,0.00,,,0.17,793.0,meteohub,2013-05-05 14:54:00,
2013-05-05 11:00:00,63.1,58.6,29.86,West,273,0.0,5.0,85,0.00,,,0.17,810.0,meteohub,2013-05-05 15:00:00,
2013-05-05 11:07:00,64.0,58.8,29.86,West,276,0.0,5.0,83,0.00,,,0.17,823.0,meteohub,2013-05-05 15:07:00,
2013-05-05 11:12:00,64.4,58.5,29.86,WSW,243,2.0,5.0,81,0.00,,,0.17,835.0,meteohub,2013-05-05 15:12:00,
2013-05-05 11:17:00,64.6,57.2,29.86,West,263,2.0,7.0,77,0.00,,,0.17,847.0,meteohub,2013-05-05 15:17:00,
2013-05-05 11:22:00,65.1,58.5,29.86,West,263,2.0,9.0,79,0.00,,,0.17,860.0,meteohub,2013-05-05 15:22:00,
2013-05-05 11:27:00,65.7,58.6,29.86,West,270,0.0,9.0,78,0.00,,,0.17,870.0,meteohub,2013-05-05 15:27:00,
2013-05-05 11:32:00,66.4,59.4,29.86,West,281,2.0,9.0,78,0.00,,,0.17,881.0,meteohub,2013-05-05 15:32:00,
2013-05-05 11:37:00,67.1,58.8,29.86,West,273,1.0,7.0,75,0.00,,,0.17,884.0,meteohub,2013-05-05 15:37:00,
2013-05-05 11:42:00,67.1,57.7,29.86,WNW,294,2.0,9.0,72,0.00,,,0.17,893.0,meteohub,2013-05-05 15:42:00,
2013-05-05 11:47:00,67.6,57.9,29.86,WSW,252,3.0,9.0,71,0.00,,,0.17,902.0,meteohub,2013-05-05 15:47:00,
2013-05-05 11:52:00,67.8,56.8,29.86,NNW,336,0.0,9.0,68,0.00,,,0.17,911.0,meteohub,2013-05-05 15:52:00,
2013-05-05 11:57:00,68.2,57.6,29.86,NNW,344,0.0,11.0,69,0.00,,,0.17,919.0,meteohub,2013-05-05 15:57:00,
2013-05-05 12:02:00,68.2,57.6,29.86,West,279,3.0,11.0,69,0.00,,,0.17,926.0,meteohub,2013-05-05 16:02:00,
2013-05-05 12:07:00,68.4,57.0,29.86,West,275,0.0,11.0,67,0.00,,,0.17,930.0,meteohub,2013-05-05 16:07:00,
2013-05-05 12:12:00,68.4,57.4,29.86,SSW,192,4.0,11.0,68,0.00,,,0.17,937.0,meteohub,2013-05-05 16:12:00,
2013-05-05 12:17:00,69.1,58.5,29.86,WSW,251,3.0,11.0,69,0.00,,,0.17,944.0,meteohub,2013-05-05 16:17:00,
2013-05-05 12:22:00,69.3,57.0,29.86,West,273,1.0,12.0,65,0.00,,,0.17,947.0,meteohub,2013-05-05 16:22:00,
2013-05-05 12:27:00,70.3,58.5,29.86,West,280,1.0,12.0,66,0.00,,,0.17,956.0,meteohub,2013-05-05 16:27:00,
2013-05-05 12:32:00,70.0,57.7,29.86,WNW,300,4.0,12.0,65,0.00,,,0.17,962.0,meteohub,2013-05-05 16:32:00,
2013-05-05 12:37:00,70.3,58.1,29.86,NNW,344,2.0,11.0,65,0.00,,,0.17,965.0,meteohub,2013-05-05 16:37:00,
2013-05-05 12:42:00,70.3,56.3,29.85,West,262,1.0,11.0,61,0.00,,,0.17,970.0,meteohub,2013-05-05 16:42:00,
2013-05-05 12:47:00,70.2,54.7,29.85,West,275,2.0,11.0,58,0.00,,,0.17,974.0,meteohub,2013-05-05 16:47:00,
2013-05-05 12:52:00,70.2,54.7,29.85,SW,220,2.0,11.0,58,0.00,,,0.17,977.0,meteohub,2013-05-05 16:52:00,
2013-05-05 12:57:00,70.3,54.3,29.85,South,185,2.0,10.0,57,0.00,,,0.17,979.0,meteohub,2013-05-05 16:57:00,
2013-05-05 13:02:00,71.1,56.5,29.84,West,263,3.0,7.0,60,0.00,,,0.17,984.0,meteohub,2013-05-05 17:02:00,
2013-05-05 13:07:00,71.1,54.5,29.84,SSW,206,3.0,11.0,56,0.00,,,0.17,984.0,meteohub,2013-05-05 17:07:00,
2013-05-05 13:12:00,71.4,55.9,29.84,SW,236,0.0,11.0,58,0.00,,,0.17,986.0,meteohub,2013-05-05 17:12:00,
2013-05-05 13:17:00,71.4,54.9,29.84,WSW,252,0.0,11.0,56,0.00,,,0.17,988.0,meteohub,2013-05-05 17:17:00,
2013-05-05 13:22:00,71.8,55.2,29.84,WSW,248,0.0,10.0,56,0.00,,,0.17,988.0,meteohub,2013-05-05 17:22:00,
2013-05-05 13:27:00,71.8,55.8,29.84,WSW,249,0.0,9.0,57,0.00,,,0.17,988.0,meteohub,2013-05-05 17:27:00,
2013-05-05 13:32:00,72.0,56.8,29.84,SW,221,1.0,11.0,59,0.00,,,0.17,986.0,meteohub,2013-05-05 17:32:00,
2013-05-05 13:37:00,72.3,58.6,29.84,WSW,254,3.0,11.0,62,0.00,,,0.17,986.0,meteohub,2013-05-05 17:37:00,
2013-05-05 13:42:00,72.3,56.3,29.83,West,278,0.0,7.0,57,0.00,,,0.17,984.0,meteohub,2013-05-05 17:42:00,
2013-05-05 13:47:00,73.0,58.3,29.83,WNW,292,3.0,7.0,60,0.00,,,0.17,988.0,meteohub,2013-05-05 17:47:00,
2013-05-05 13:52:00,73.0,57.4,29.83,West,263,2.0,7.0,58,0.00,,,0.17,983.0,meteohub,2013-05-05 17:52:00,
2013-05-05 13:57:00,73.0,55.4,29.83,West,274,0.0,7.0,54,0.00,,,0.17,981.0,meteohub,2013-05-05 17:57:00,
2013-05-05 14:02:00,73.8,58.5,29.83,SW,233,3.0,7.0,59,0.00,,,0.17,974.0,meteohub,2013-05-05 18:02:00,
2013-05-05 14:07:00,73.6,56.5,29.83,WSW,257,2.0,6.0,55,0.00,,,0.17,974.0,meteohub,2013-05-05 18:07:00,
2013-05-05 14:12:00,73.4,56.7,29.83,WSW,250,0.0,6.0,56,0.00,,,0.17,970.0,meteohub,2013-05-05 18:12:00,
2013-05-05 14:17:00,73.6,55.4,29.83,West,278,2.0,6.0,53,0.00,,,0.17,965.0,meteohub,2013-05-05 18:17:00,
2013-05-05 14:23:00,73.6,56.5,29.83,West,275,2.0,6.0,55,0.00,,,0.17,960.0,meteohub,2013-05-05 18:23:00,
2013-05-05 14:29:00,73.8,56.1,29.83,West,281,2.0,10.0,54,0.00,,,0.17,951.0,meteohub,2013-05-05 18:29:00,
2013-05-05 14:36:00,73.9,57.7,29.83,West,279,5.0,10.0,57,0.00,,,0.17,946.0,meteohub,2013-05-05 18:36:00,
2013-05-05 14:42:00,73.9,55.8,29.83,WSW,251,0.0,11.0,53,0.00,,,0.17,940.0,meteohub,2013-05-05 18:42:00,
2013-05-05 14:47:00,74.1,57.9,29.83,SW,220,1.0,11.0,57,0.00,,,0.17,932.0,meteohub,2013-05-05 18:47:00,
2013-05-05 14:52:00,74.1,55.9,29.83,WSW,246,2.0,9.0,53,0.00,,,0.17,925.0,meteohub,2013-05-05 18:52:00,
2013-05-05 14:57:00,74.5,56.7,29.83,SW,225,0.0,9.0,54,0.00,,,0.17,916.0,meteohub,2013-05-05 18:57:00,
2013-05-05 15:02:00,74.7,55.9,29.83,West,273,2.0,9.0,52,0.00,,,0.17,911.0,meteohub,2013-05-05 19:02:00,
2013-05-05 15:07:00,75.0,57.7,29.83,West,271,5.0,7.0,55,0.00,,,0.17,904.0,meteohub,2013-05-05 19:07:00,
2013-05-05 15:12:00,74.8,57.6,29.83,West,270,0.0,7.0,55,0.00,,,0.17,893.0,meteohub,2013-05-05 19:12:00,
2013-05-05 15:17:00,74.7,57.9,29.83,West,267,9.0,9.0,56,0.00,,,0.17,882.0,meteohub,2013-05-05 19:17:00,
2013-05-05 15:22:00,74.8,54.3,29.82,West,281,1.0,12.0,49,0.00,,,0.17,872.0,meteohub,2013-05-05 19:22:00,
2013-05-05 15:27:00,75.0,54.5,29.82,WSW,244,2.0,12.0,49,0.00,,,0.17,863.0,meteohub,2013-05-05 19:27:00,
2013-05-05 15:32:00,75.0,53.4,29.82,North,5,0.0,12.0,47,0.00,,,0.17,854.0,meteohub,2013-05-05 19:32:00,
2013-05-05 15:37:00,75.2,54.7,29.82,WSW,248,1.0,6.0,49,0.00,,,0.17,840.0,meteohub,2013-05-05 19:37:00,
2013-05-05 15:42:00,75.2,53.6,29.82,West,272,0.0,5.0,47,0.00,,,0.17,835.0,meteohub,2013-05-05 19:42:00,
2013-05-05 15:47:00,75.6,55.6,29.82,SSW,194,1.0,5.0,50,0.00,,,0.17,814.0,meteohub,2013-05-05 19:47:00,
2013-05-05 15:52:00,75.4,53.8,29.82,NNW,347,1.0,5.0,47,0.00,,,0.17,805.0,meteohub,2013-05-05 19:52:00,
2013-05-05 15:57:00,75.2,57.4,29.82,West,273,2.0,7.0,54,0.00,,,0.17,793.0,meteohub,2013-05-05 19:57:00,
2013-05-05 16:02:00,75.7,57.9,29.82,WNW,286,1.0,7.0,54,0.00,,,0.17,780.0,meteohub,2013-05-05 20:02:00,
2013-05-05 16:07:00,75.9,55.9,29.81,West,273,1.0,5.0,50,0.00,,,0.17,770.0,meteohub,2013-05-05 20:07:00,
2013-05-05 16:14:00,75.9,58.1,29.81,West,264,1.0,6.0,54,0.00,,,0.17,749.0,meteohub,2013-05-05 20:14:00,
2013-05-05 16:20:00,75.9,54.9,29.81,North,5,0.0,6.0,48,0.00,,,0.17,731.0,meteohub,2013-05-05 20:20:00,
2013-05-05 16:26:00,75.7,55.2,29.81,NNW,346,1.0,7.0,49,0.00,,,0.17,710.0,meteohub,2013-05-05 20:26:00,
2013-05-05 16:32:00,75.9,55.4,29.81,WSW,249,0.0,7.0,49,0.00,,,0.17,693.0,meteohub,2013-05-05 20:32:00,
2013-05-05 16:37:00,76.5,57.0,29.81,WNW,285,0.0,7.0,51,0.00,,,0.17,682.0,meteohub,2013-05-05 20:37:00,
2013-05-05 16:42:00,76.6,56.7,29.81,WSW,244,3.0,5.0,50,0.00,,,0.17,664.0,meteohub,2013-05-05 20:42:00,
2013-05-05 16:47:00,76.6,57.2,29.81,West,269,2.0,5.0,51,0.00,,,0.17,649.0,meteohub,2013-05-05 20:47:00,
2013-05-05 16:52:00,76.8,54.5,29.81,SSW,192,0.0,5.0,46,0.00,,,0.17,636.0,meteohub,2013-05-05 20:52:00,
2013-05-05 16:57:00,76.6,54.9,29.81,West,264,0.0,4.0,47,0.00,,,0.17,591.0,meteohub,2013-05-05 20:57:00,
2013-05-05 17:02:00,76.6,55.4,29.81,West,273,1.0,6.0,48,0.00,,,0.17,584.0,meteohub,2013-05-05 21:02:00,
2013-05-05 17:09:00,76.8,55.6,29.81,WNW,297,3.0,7.0,48,0.00,,,0.17,524.0,meteohub,2013-05-05 21:09:00,
2013-05-05 17:15:00,76.8,54.5,29.81,WSW,252,2.0,7.0,46,0.00,,,0.17,554.0,meteohub,2013-05-05 21:15:00,
2013-05-05 17:21:00,76.8,55.0,29.81,SW,232,0.0,6.0,47,0.00,,,0.17,455.0,meteohub,2013-05-05 21:21:00,
2013-05-05 17:27:00,76.8,55.0,29.81,West,262,0.0,6.0,47,0.00,,,0.17,519.0,meteohub,2013-05-05 21:27:00,
2013-05-05 17:32:00,76.8,55.0,29.81,West,263,1.0,6.0,47,0.00,,,0.17,497.0,meteohub,2013-05-05 21:32:00,
2013-05-05 17:37:00,77.0,54.0,29.81,West,274,2.0,6.0,45,0.00,,,0.17,476.0,meteohub,2013-05-05 21:37:00,
2013-05-05 17:42:00,76.8,54.5,29.81,West,277,0.0,6.0,46,0.00,,,0.17,461.0,meteohub,2013-05-05 21:42:00,
2013-05-05 17:47:00,77.0,56.3,29.81,WNW,284,0.0,6.0,49,0.00,,,0.17,445.0,meteohub,2013-05-05 21:47:00,
2013-05-05 17:52:00,76.8,53.2,29.81,WSW,255,2.0,10.0,44,0.00,,,0.17,429.0,meteohub,2013-05-05 21:52:00,
2013-05-05 17:57:00,76.6,54.9,29.81,West,271,1.0,10.0,47,0.00,,,0.17,388.0,meteohub,2013-05-05 21:57:00,
2013-05-05 18:02:00,76.6,55.4,29.81,West,267,0.0,10.0,48,0.00,,,0.17,390.0,meteohub,2013-05-05 22:02:00,
2013-05-05 18:07:00,76.6,56.1,29.81,West,274,3.0,6.0,49,0.00,,,0.17,380.0,meteohub,2013-05-05 22:07:00,
2013-05-05 18:12:00,76.5,53.6,29.81,WNW,284,4.0,6.0,45,0.00,,,0.17,338.0,meteohub,2013-05-05 22:12:00,
2013-05-05 18:17:00,75.9,53.6,29.81,NW,317,2.0,7.0,46,0.00,,,0.17,218.0,meteohub,2013-05-05 22:17:00,
2013-05-05 18:22:00,75.6,55.0,29.81,SW,215,0.0,7.0,49,0.00,,,0.17,116.0,meteohub,2013-05-05 22:22:00,
2013-05-05 18:27:00,75.4,52.5,29.81,West,276,2.0,7.0,45,0.00,,,0.17,81.0,meteohub,2013-05-05 22:27:00,
2013-05-05 18:32:00,75.0,52.2,29.81,WSW,257,0.0,6.0,45,0.00,,,0.17,60.0,meteohub,2013-05-05 22:32:00,
2013-05-05 18:37:00,74.8,54.3,29.81,WSW,258,0.0,6.0,49,0.00,,,0.17,51.0,meteohub,2013-05-05 22:37:00,
2013-05-05 18:44:00,74.7,55.4,29.81,SSE,163,0.0,6.0,51,0.00,,,0.17,88.0,meteohub,2013-05-05 22:44:00,
2013-05-05 18:50:00,74.5,55.2,29.81,WNW,283,1.0,3.0,51,0.00,,,0.17,46.0,meteohub,2013-05-05 22:50:00,
2013-05-05 18:56:00,74.1,53.8,29.81,WSW,241,3.0,5.0,49,0.00,,,0.17,42.0,meteohub,2013-05-05 22:56:00,
2013-05-05 19:02:00,73.9,53.6,29.81,West,265,0.0,5.0,49,0.00,,,0.17,40.0,meteohub,2013-05-05 23:02:00,
2013-05-05 19:07:00,73.6,52.7,29.81,West,273,0.0,5.0,48,0.00,,,0.17,39.0,meteohub,2013-05-05 23:07:00,
2013-05-05 19:12:00,73.4,55.2,29.80,West,273,0.0,4.0,53,0.00,,,0.17,37.0,meteohub,2013-05-05 23:12:00,
2013-05-05 19:17:00,73.2,55.6,29.80,West,273,0.0,4.0,54,0.00,,,0.17,35.0,meteohub,2013-05-05 23:17:00,
2013-05-05 19:22:00,72.9,54.7,29.80,West,269,0.0,2.0,53,0.00,,,0.17,32.0,meteohub,2013-05-05 23:22:00,
2013-05-05 19:34:00,72.3,54.7,29.81,West,269,0.0,4.0,54,0.00,,,0.17,25.0,meteohub,2013-05-05 23:34:00,
2013-05-05 19:40:00,72.1,55.6,29.81,West,269,0.0,2.0,56,0.00,,,0.17,21.0,meteohub,2013-05-05 23:40:00,
2013-05-05 19:46:00,72.0,57.7,29.81,West,269,0.0,2.0,61,0.00,,,0.17,16.0,meteohub,2013-05-05 23:46:00,
2013-05-05 19:52:00,71.6,57.9,29.81,West,269,0.0,1.0,62,0.00,,,0.17,12.0,meteohub,2013-05-05 23:52:00,
2013-05-05 19:57:00,71.2,57.6,29.81,West,269,0.0,0.0,62,0.00,,,0.17,9.0,meteohub,2013-05-05 23:57:00,
2013-05-05 20:02:00,70.7,57.6,29.81,West,269,0.0,0.0,63,0.00,,,0.17,7.0,meteohub,2013-05-06 00:02:00,
2013-05-05 20:07:00,70.2,57.4,29.82,West,269,0.0,0.0,64,0.00,,,0.00,5.0,meteohub,2013-05-06 00:07:00,
2013-05-05 20:12:00,69.6,57.4,29.82,West,269,0.0,0.0,65,0.00,,,0.00,0.0,meteohub,2013-05-06 00:12:00,
2013-05-05 20:17:00,69.1,57.2,29.82,West,269,0.0,0.0,66,0.00,,,0.00,0.0,meteohub,2013-05-06 00:17:00,
2013-05-05 20:22:00,68.5,57.6,29.82,West,269,0.0,0.0,68,0.00,,,0.00,0.0,meteohub,2013-05-06 00:22:00,
2013-05-05 20:27:00,68.2,57.6,29.82,West,269,0.0,0.0,69,0.00,,,0.00,0.0,meteohub,2013-05-06 00:27:00,
2013-05-05 20:32:00,67.6,57.6,29.82,West,269,0.0,0.0,70,0.00,,,0.00,0.0,meteohub,2013-05-06 00:32:00,
2013-05-05 20:37:00,67.3,57.9,29.83,West,269,0.0,0.0,72,0.00,,,0.00,0.0,meteohub,2013-05-06 00:37:00,
2013-05-05 20:42:00,66.7,58.1,29.83,West,269,0.0,1.0,74,0.00,,,0.00,0.0,meteohub,2013-05-06 00:42:00,
2013-05-05 20:47:00,66.4,57.9,29.83,West,269,0.0,1.0,74,0.00,,,0.00,0.0,meteohub,2013-05-06 00:47:00,
2013-05-05 20:52:00,65.8,57.7,29.83,West,269,0.0,1.0,75,0.00,,,0.00,0.0,meteohub,2013-05-06 00:52:00,
2013-05-05 20:57:00,65.5,57.7,29.83,West,269,0.0,1.0,76,0.00,,,0.00,0.0,meteohub,2013-05-06 00:57:00,
2013-05-05 21:02:00,65.1,57.4,29.83,West,269,0.0,0.0,76,0.00,,,0.00,0.0,meteohub,2013-05-06 01:02:00,
2013-05-05 21:07:00,64.8,57.0,29.83,West,269,0.0,0.0,76,0.00,,,0.00,0.0,meteohub,2013-05-06 01:07:00,
2013-05-05 21:12:00,64.2,56.5,29.84,West,269,0.0,0.0,76,0.00,,,0.00,0.0,meteohub,2013-05-06 01:12:00,
2013-05-05 21:17:00,63.9,56.5,29.84,West,269,0.0,0.0,77,0.00,,,0.00,0.0,meteohub,2013-05-06 01:17:00,
2013-05-05 21:22:00,63.7,56.3,29.85,West,269,0.0,0.0,77,0.00,,,0.00,0.0,meteohub,2013-05-06 01:22:00,
2013-05-05 21:27:00,63.3,56.7,29.85,West,269,0.0,0.0,79,0.00,,,0.00,0.0,meteohub,2013-05-06 01:27:00,
2013-05-05 21:32:00,63.1,56.5,29.85,West,269,0.0,1.0,79,0.00,,,0.00,0.0,meteohub,2013-05-06 01:32:00,
2013-05-05 21:37:00,63.1,56.5,29.85,WSW,246,1.0,3.0,79,0.00,,,0.00,0.0,meteohub,2013-05-06 01:37:00,
2013-05-05 21:42:00,63.0,56.3,29.85,WSW,246,0.0,3.0,79,0.00,,,0.00,0.0,meteohub,2013-05-06 01:42:00,
2013-05-05 21:47:00,63.1,56.5,29.85,WSW,246,0.0,3.0,79,0.00,,,0.00,0.0,meteohub,2013-05-06 01:47:00,
2013-05-05 21:52:00,63.1,56.8,29.85,WSW,246,0.0,1.0,80,0.00,,,0.00,0.0,meteohub,2013-05-06 01:52:00,
2013-05-05 21:57:00,63.1,56.8,29.85,WSW,246,0.0,1.0,80,0.00,,,0.00,0.0,meteohub,2013-05-06 01:57:00,
2013-05-05 22:02:00,63.3,57.0,29.85,WSW,246,0.0,0.0,80,0.00,,,0.00,0.0,meteohub,2013-05-06 02:02:00,
2013-05-05 22:07:00,63.3,57.0,29.85,WSW,246,0.0,0.0,80,0.00,,,0.00,0.0,meteohub,2013-05-06 02:07:00,
2013-05-05 22:12:00,63.1,56.8,29.86,WSW,246,0.0,0.0,80,0.00,,,0.00,0.0,meteohub,2013-05-06 02:12:00,
2013-05-05 22:17:00,63.1,56.8,29.85,WSW,246,0.0,0.0,80,0.00,,,0.00,0.0,meteohub,2013-05-06 02:17:00,
2013-05-05 22:22:00,63.1,57.2,29.86,WSW,246,0.0,0.0,81,0.00,,,0.00,0.0,meteohub,2013-05-06 02:22:00,
2013-05-05 22:27:00,63.0,57.0,29.86,WSW,246,0.0,0.0,81,0.00,,,0.00,0.0,meteohub,2013-05-06 02:27:00,
2013-05-05 22:32:00,63.0,57.0,29.86,WSW,246,0.0,0.0,81,0.00,,,0.00,0.0,meteohub,2013-05-06 02:32:00,
2013-05-05 22:37:00,62.8,56.8,29.86,WSW,246,0.0,0.0,81,0.00,,,0.00,0.0,meteohub,2013-05-06 02:37:00,
2013-05-05 22:42:00,62.8,57.2,29.85,WSW,246,0.0,0.0,82,0.00,,,0.00,0.0,meteohub,2013-05-06 02:42:00,
2013-05-05 22:47:00,62.6,57.0,29.86,WSW,246,0.0,0.0,82,0.00,,,0.00,0.0,meteohub,2013-05-06 02:47:00,
2013-05-05 22:52:00,62.4,57.2,29.85,WSW,246,0.0,0.0,83,0.00,,,0.00,0.0,meteohub,2013-05-06 02:52:00,
2013-05-05 22:57:00,62.4,57.2,29.86,WSW,246,0.0,0.0,83,0.00,,,0.00,0.0,meteohub,2013-05-06 02:57:00,
2013-05-05 23:02:00,62.2,57.0,29.86,WSW,246,0.0,0.0,83,0.00,,,0.00,0.0,meteohub,2013-05-06 03:02:00,
2013-05-05 23:09:00,62.2,57.0,29.86,WSW,246,0.0,0.0,83,0.00,,,0.00,0.0,meteohub,2013-05-06 03:09:00,
2013-05-05 23:15:00,62.1,56.8,29.86,WSW,246,0.0,0.0,83,0.00,,,0.00,0.0,meteohub,2013-05-06 03:15:00,
2013-05-05 23:21:00,62.1,56.8,29.86,WSW,246,0.0,0.0,83,0.00,,,0.00,0.0,meteohub,2013-05-06 03:21:00,
2013-05-05 23:27:00,62.1,56.8,29.86,WSW,246,0.0,0.0,83,0.00,,,0.00,0.0,meteohub,2013-05-06 03:27:00,
2013-05-05 23:32:00,61.9,56.7,29.86,WSW,246,0.0,0.0,83,0.00,,,0.00,0.0,meteohub,2013-05-06 03:32:00,
2013-05-05 23:37:00,61.9,56.7,29.86,WSW,246,0.0,0.0,83,0.00,,,0.00,0.0,meteohub,2013-05-06 03:37:00,
2013-05-05 23:42:00,61.7,56.5,29.86,WSW,246,0.0,0.0,83,0.00,,,0.00,0.0,meteohub,2013-05-06 03:42:00,
2013-05-05 23:47:00,61.5,56.7,29.86,WSW,246,0.0,0.0,84,0.00,,,0.00,0.0,meteohub,2013-05-06 03:47:00,
2013-05-05 23:52:00,61.5,56.7,29.86,WSW,246,0.0,0.0,84,0.00,,,0.00,0.0,meteohub,2013-05-06 03:52:00,
2013-05-05 23:57:00,61.3,56.5,29.86,WSW,246,0.0,0.0,84,0.00,,,0.00,0.0,meteohub,2013-05-06 03:57:00,